createdAt,value
2022-10-13T00:00:26.955Z,95.93
2022-10-13T00:00:58.601Z,96.08
2022-10-13T00:01:30.236Z,96.26
2022-10-13T00:02:01.778Z,96.26
2022-10-13T00:02:33.303Z,96.24
2022-10-13T00:03:04.920Z,96.04
2022-10-13T00:03:38.135Z,95.71
2022-10-13T00:04:09.655Z,95.84
2022-10-13T00:04:41.169Z,95.73
2022-10-13T00:05:12.779Z,95.69
2022-10-13T00:05:48.943Z,96.15
2022-10-13T00:06:24.848Z,96.03
2022-10-13T00:06:56.375Z,96.02
2022-10-13T00:07:27.877Z,96.61
2022-10-13T00:08:00.033Z,96.54
2022-10-13T00:08:31.617Z,96.45
2022-10-13T00:09:03.323Z,96.48
2022-10-13T00:09:34.839Z,96.53
2022-10-13T00:10:06.665Z,96.51
2022-10-13T00:10:39.504Z,96.63
2022-10-13T00:11:12.537Z,96.83
2022-10-13T00:11:44.051Z,97.02
2022-10-13T00:12:15.874Z,97.05
2022-10-13T00:12:47.656Z,97.18
2022-10-13T00:13:20.356Z,97.09
2022-10-13T00:13:52.741Z,97.28
2022-10-13T00:14:24.283Z,97.09
2022-10-13T00:14:55.969Z,96.82
2022-10-13T00:15:27.520Z,96.50
2022-10-13T00:15:59.033Z,96.40
2022-10-13T00:16:31.620Z,96.58
2022-10-13T00:17:03.217Z,96.54
2022-10-13T00:17:36.523Z,96.45
2022-10-13T00:18:09.183Z,96.42
2022-10-13T00:18:41.122Z,96.35
2022-10-13T00:19:15.102Z,96.24
2022-10-13T00:19:46.782Z,96.41
2022-10-13T00:20:18.313Z,96.25
2022-10-13T00:20:50.029Z,96.18
2022-10-13T00:21:24.379Z,96.08
2022-10-13T00:21:55.897Z,96.17
2022-10-13T00:22:28.191Z,96.11
2022-10-13T00:22:59.779Z,96.13
2022-10-13T00:23:33.627Z,96.29
2022-10-13T00:24:05.341Z,96.06
2022-10-13T00:24:36.901Z,95.87
2022-10-13T00:25:08.911Z,95.70
2022-10-13T00:25:48.432Z,95.64
2022-10-13T00:26:22.268Z,95.77
2022-10-13T00:26:53.838Z,95.80
2022-10-13T00:27:25.474Z,95.86
2022-10-13T00:27:57.032Z,96.00
2022-10-13T00:28:28.571Z,96.08
2022-10-13T00:29:00.505Z,96.14
2022-10-13T00:29:32.215Z,96.12
2022-10-13T00:30:04.622Z,96.22
2022-10-13T00:30:37.026Z,96.45
2022-10-13T00:31:26.082Z,96.60
2022-10-13T00:31:57.694Z,96.44
2022-10-13T00:32:29.455Z,96.07
2022-10-13T00:33:01.039Z,95.87
2022-10-13T00:33:33.578Z,95.74
2022-10-13T00:34:05.162Z,95.80
2022-10-13T00:34:37.661Z,95.85
2022-10-13T00:35:09.748Z,95.79
2022-10-13T00:35:47.155Z,96.01
2022-10-13T00:36:19.834Z,96.22
2022-10-13T00:36:51.389Z,96.06
2022-10-13T00:37:22.966Z,95.91
2022-10-13T00:37:54.558Z,96.06
2022-10-13T00:38:26.068Z,96.00
2022-10-13T00:38:58.280Z,95.96
2022-10-13T00:39:29.996Z,95.87
2022-10-13T00:40:01.776Z,96.01
2022-10-13T00:40:33.280Z,96.05
2022-10-13T00:41:05.815Z,96.01
2022-10-13T00:41:37.376Z,95.98
2022-10-13T00:42:12.440Z,96.32
2022-10-13T00:42:43.958Z,96.26
2022-10-13T00:43:20.938Z,96.11
2022-10-13T00:44:04.446Z,96.29
2022-10-13T00:45:00.044Z,96.42
2022-10-13T00:45:31.564Z,96.52
2022-10-13T00:46:03.098Z,96.45
2022-10-13T00:46:36.342Z,96.83
2022-10-13T00:47:07.956Z,96.63
2022-10-13T00:47:43.520Z,96.61
2022-10-13T00:48:15.061Z,96.62
2022-10-13T00:48:47.439Z,96.72
2022-10-13T00:49:19.242Z,96.89
2022-10-13T00:49:52.555Z,96.75
2022-10-13T00:50:29.938Z,96.13
2022-10-13T00:51:01.566Z,95.97
2022-10-13T00:51:38.300Z,96.15
2022-10-13T00:52:09.864Z,96.13
2022-10-13T00:52:42.880Z,96.04
2022-10-13T00:53:15.710Z,95.89
2022-10-13T00:53:48.201Z,96.10
2022-10-13T00:54:24.253Z,96.04
2022-10-13T00:54:56.518Z,96.19
2022-10-13T00:55:31.910Z,96.32
2022-10-13T00:56:05.545Z,96.53
2022-10-13T00:56:38.656Z,96.59
2022-10-13T00:57:11.002Z,96.40
2022-10-13T00:57:45.996Z,96.26
2022-10-13T00:58:19.660Z,96.30
2022-10-13T00:58:52.190Z,96.30
2022-10-13T00:59:27.418Z,96.15
2022-10-13T01:00:00.178Z,96.23
2022-10-13T01:00:32.846Z,96.21
2022-10-13T01:01:05.400Z,96.28
2022-10-13T01:01:37.994Z,96.18
2022-10-13T01:02:09.499Z,96.05
2022-10-13T01:02:41.228Z,96.00
2022-10-13T01:03:12.850Z,96.10
2022-10-13T01:03:44.386Z,95.82
2022-10-13T01:04:18.683Z,96.18
2022-10-13T01:04:51.476Z,96.14
2022-10-13T01:05:25.002Z,96.40
2022-10-13T01:05:59.859Z,96.49
2022-10-13T01:06:31.532Z,96.73
2022-10-13T01:07:04.315Z,97.08
2022-10-13T01:07:36.085Z,96.92
2022-10-13T01:08:08.372Z,96.97
2022-10-13T01:08:40.118Z,96.73
2022-10-13T01:09:11.756Z,96.70
2022-10-13T01:09:43.415Z,96.72
2022-10-13T01:10:24.773Z,96.78
2022-10-13T01:11:18.168Z,96.91
2022-10-13T01:12:01.663Z,96.56
2022-10-13T01:12:45.324Z,96.46
2022-10-13T01:13:50.734Z,96.44
2022-10-13T01:14:35.982Z,96.38
2022-10-13T01:15:22.568Z,96.50
2022-10-13T01:15:54.413Z,96.72
2022-10-13T01:16:40.910Z,96.60
2022-10-13T01:17:28.758Z,96.68
2022-10-13T01:18:26.557Z,96.58
2022-10-13T01:19:00.955Z,96.46
2022-10-13T01:20:05.773Z,96.55
2022-10-13T01:20:59.243Z,96.21
2022-10-13T01:21:41.161Z,96.26
2022-10-13T01:22:37.524Z,96.44
2022-10-13T01:23:27.751Z,96.53
2022-10-13T01:24:47.218Z,96.63
2022-10-13T01:25:39.478Z,96.72
2022-10-13T01:26:29.486Z,96.74
2022-10-13T01:27:06.872Z,96.70
2022-10-13T01:27:57.081Z,97.03
2022-10-13T01:28:47.294Z,96.94
2022-10-13T01:29:56.266Z,96.75
2022-10-13T01:30:28.522Z,96.89
2022-10-13T01:31:15.025Z,96.76
2022-10-13T01:32:12.217Z,96.90
2022-10-13T01:33:01.549Z,96.83
2022-10-13T01:33:45.588Z,97.08
2022-10-13T01:34:31.854Z,96.57
2022-10-13T01:35:11.858Z,96.37
2022-10-13T01:36:24.579Z,96.08
2022-10-13T01:37:04.848Z,96.15
2022-10-13T01:37:55.067Z,95.60
2022-10-13T01:38:47.424Z,95.73
2022-10-13T01:39:29.795Z,95.84
2022-10-13T01:40:16.734Z,96.03
2022-10-13T01:40:51.507Z,95.90
2022-10-13T01:41:32.560Z,95.93
2022-10-13T01:42:24.364Z,95.99
2022-10-13T01:43:02.762Z,96.08
2022-10-13T01:43:45.322Z,96.26
2022-10-13T01:44:31.978Z,96.45
2022-10-13T01:45:04.443Z,96.68
2022-10-13T01:45:42.513Z,96.59
2022-10-13T01:46:17.698Z,96.92
2022-10-13T01:46:51.556Z,96.70
2022-10-13T01:47:24.970Z,96.50
2022-10-13T01:47:59.562Z,96.72
2022-10-13T01:48:32.761Z,96.37
2022-10-13T01:49:11.133Z,96.15
2022-10-13T01:49:44.494Z,96.09
2022-10-13T01:50:18.295Z,95.92
2022-10-13T01:50:50.702Z,96.38
2022-10-13T01:51:25.143Z,96.39
2022-10-13T01:52:01.763Z,96.31
2022-10-13T01:52:37.240Z,96.43
2022-10-13T01:53:09.938Z,96.49
2022-10-13T01:53:42.751Z,96.46
2022-10-13T01:54:14.390Z,96.43
2022-10-13T01:54:52.796Z,96.48
2022-10-13T01:55:24.385Z,96.35
2022-10-13T01:55:58.755Z,96.31
2022-10-13T01:56:30.282Z,96.32
2022-10-13T01:57:01.886Z,96.25
2022-10-13T01:57:42.078Z,96.15
2022-10-13T01:58:13.618Z,96.11
2022-10-13T01:58:46.299Z,96.26
2022-10-13T01:59:17.803Z,96.38
2022-10-13T01:59:49.343Z,96.37
2022-10-13T02:01:13.069Z,96.54
2022-10-13T02:01:52.392Z,96.45
2022-10-13T02:02:31.694Z,96.45
2022-10-13T02:03:13.423Z,96.69
2022-10-13T02:03:59.958Z,96.78
2022-10-13T02:04:54.016Z,96.61
2022-10-13T02:05:50.714Z,96.43
2022-10-13T02:06:28.023Z,96.30
2022-10-13T02:07:06.995Z,95.98
2022-10-13T02:07:45.453Z,96.19
2022-10-13T02:08:29.612Z,96.13
2022-10-13T02:09:18.553Z,96.34
2022-10-13T02:10:27.323Z,96.76
2022-10-13T02:11:20.344Z,97.08
2022-10-13T02:11:58.669Z,97.01
2022-10-13T02:12:36.884Z,96.45
2022-10-13T02:13:12.553Z,96.46
2022-10-13T02:14:12.773Z,96.62
2022-10-13T02:14:46.941Z,96.77
2022-10-13T02:15:23.500Z,96.89
2022-10-13T02:15:58.924Z,97.21
2022-10-13T02:16:36.404Z,97.17
2022-10-13T02:17:07.968Z,97.19
2022-10-13T02:17:40.264Z,97.09
2022-10-13T02:18:14.912Z,97.03
2022-10-13T02:18:47.173Z,96.93
2022-10-13T02:19:19.048Z,97.09
2022-10-13T02:19:50.569Z,97.07
2022-10-13T02:20:22.763Z,96.88
2022-10-13T02:20:55.901Z,97.05
2022-10-13T02:21:28.207Z,96.77
2022-10-13T02:21:59.938Z,96.92
2022-10-13T02:22:37.252Z,96.96
2022-10-13T02:23:12.100Z,96.88
2022-10-13T02:23:44.676Z,96.77
2022-10-13T02:24:16.321Z,96.49
2022-10-13T02:24:47.974Z,96.49
2022-10-13T02:25:19.529Z,96.40
2022-10-13T02:25:51.170Z,96.59
2022-10-13T02:26:22.970Z,96.42
2022-10-13T02:26:54.716Z,96.63
2022-10-13T02:27:26.496Z,96.70
2022-10-13T02:28:00.764Z,96.22
2022-10-13T02:28:32.491Z,96.16
2022-10-13T02:29:12.363Z,96.22
2022-10-13T02:29:56.037Z,95.50
2022-10-13T02:30:30.231Z,95.97
2022-10-13T02:31:02.121Z,95.79
2022-10-13T02:31:33.642Z,95.58
2022-10-13T02:32:05.302Z,95.70
2022-10-13T02:32:37.146Z,95.95
2022-10-13T02:33:09.576Z,96.20
2022-10-13T02:33:41.140Z,96.03
2022-10-13T02:34:13.361Z,96.19
2022-10-13T02:34:44.885Z,96.20
2022-10-13T02:35:16.829Z,96.23
2022-10-13T02:35:48.326Z,96.34
2022-10-13T02:36:19.831Z,96.44
2022-10-13T02:36:51.537Z,96.42
2022-10-13T02:37:25.527Z,96.49
2022-10-13T02:37:57.057Z,96.44
2022-10-13T02:38:28.571Z,96.14
2022-10-13T02:39:00.378Z,96.33
2022-10-13T02:39:31.885Z,96.24
2022-10-13T02:40:03.854Z,96.88
2022-10-13T02:40:35.577Z,96.69
2022-10-13T02:41:07.095Z,96.55
2022-10-13T02:41:38.658Z,96.42
2022-10-13T02:42:10.385Z,96.33
2022-10-13T02:42:41.932Z,96.38
2022-10-13T02:43:13.454Z,96.30
2022-10-13T02:43:44.951Z,96.24
2022-10-13T02:44:16.458Z,95.90
2022-10-13T02:44:47.969Z,95.90
2022-10-13T02:45:19.695Z,95.92
2022-10-13T02:45:51.552Z,95.73
2022-10-13T02:46:23.111Z,95.71
2022-10-13T02:46:54.629Z,95.96
2022-10-13T02:47:26.170Z,96.31
2022-10-13T02:47:58.166Z,96.38
2022-10-13T02:48:29.790Z,96.65
2022-10-13T02:49:01.654Z,96.34
2022-10-13T02:49:33.163Z,96.13
2022-10-13T02:50:05.352Z,95.93
2022-10-13T02:50:36.883Z,95.98
2022-10-13T02:51:08.469Z,95.91
2022-10-13T02:51:40.550Z,95.95
2022-10-13T02:52:12.273Z,96.38
2022-10-13T02:52:43.770Z,96.42
2022-10-13T02:53:15.288Z,96.47
2022-10-13T02:53:46.988Z,96.39
2022-10-13T02:54:18.590Z,96.39
2022-10-13T02:54:50.091Z,96.38
2022-10-13T02:55:21.676Z,96.22
2022-10-13T02:55:53.202Z,96.19
2022-10-13T02:56:24.714Z,96.06
2022-10-13T02:56:56.236Z,95.88
2022-10-13T02:57:27.762Z,96.14
2022-10-13T02:57:59.287Z,96.33
2022-10-13T02:58:30.871Z,96.26
2022-10-13T02:59:02.402Z,96.12
2022-10-13T02:59:33.961Z,96.25
2022-10-13T03:00:07.225Z,96.64
2022-10-13T03:00:39.696Z,96.65
2022-10-13T03:01:14.121Z,96.67
2022-10-13T03:01:45.763Z,96.26
2022-10-13T03:02:18.008Z,96.25
2022-10-13T03:02:49.830Z,96.47
2022-10-13T03:03:21.329Z,96.84
2022-10-13T03:03:52.823Z,96.81
2022-10-13T03:04:24.345Z,96.04
2022-10-13T03:04:56.075Z,96.24
2022-10-13T03:05:27.605Z,96.22
2022-10-13T03:05:59.123Z,96.79
2022-10-13T03:06:30.687Z,96.38
2022-10-13T03:07:02.410Z,96.42
2022-10-13T03:07:33.951Z,96.29
2022-10-13T03:08:05.803Z,95.95
2022-10-13T03:08:37.617Z,96.02
2022-10-13T03:09:09.125Z,95.87
2022-10-13T03:09:40.667Z,95.86
2022-10-13T03:10:12.168Z,95.68
2022-10-13T03:10:43.679Z,96.20
2022-10-13T03:11:15.213Z,96.55
2022-10-13T03:11:46.763Z,96.83
2022-10-13T03:12:18.680Z,96.72
2022-10-13T03:12:50.855Z,96.86
2022-10-13T03:13:22.359Z,96.98
2022-10-13T03:13:54.224Z,96.87
2022-10-13T03:14:25.841Z,96.82
2022-10-13T03:14:57.470Z,96.64
2022-10-13T03:15:28.993Z,96.52
2022-10-13T03:16:00.509Z,96.63
2022-10-13T03:16:32.038Z,96.65
2022-10-13T03:17:03.819Z,96.87
2022-10-13T03:17:35.376Z,97.23
2022-10-13T03:18:06.923Z,96.82
2022-10-13T03:18:38.436Z,97.07
2022-10-13T03:19:10.162Z,96.60
2022-10-13T03:19:41.670Z,96.68
2022-10-13T03:20:13.199Z,97.00
2022-10-13T03:20:44.899Z,97.10
2022-10-13T03:21:16.395Z,96.90
2022-10-13T03:21:47.955Z,96.66
2022-10-13T03:22:19.835Z,97.18
2022-10-13T03:22:51.487Z,97.36
2022-10-13T03:23:22.997Z,96.53
2022-10-13T03:23:54.555Z,96.69
2022-10-13T03:24:26.094Z,97.19
2022-10-13T03:24:57.632Z,96.50
2022-10-13T03:25:29.138Z,96.43
2022-10-13T03:26:00.769Z,96.01
2022-10-13T03:26:33.442Z,96.51
2022-10-13T03:27:04.952Z,96.60
2022-10-13T03:27:36.473Z,96.50
2022-10-13T03:28:08.021Z,96.47
2022-10-13T03:28:39.770Z,96.48
2022-10-13T03:29:16.097Z,96.37
2022-10-13T03:29:47.633Z,96.41
2022-10-13T03:30:19.251Z,96.54
2022-10-13T03:30:51.296Z,96.38
2022-10-13T03:31:22.840Z,96.11
2022-10-13T03:31:54.349Z,96.10
2022-10-13T03:32:26.258Z,96.12
2022-10-13T03:32:57.773Z,96.16
2022-10-13T03:33:29.399Z,95.93
2022-10-13T03:34:00.922Z,96.48
2022-10-13T03:34:32.622Z,96.48
2022-10-13T03:35:06.398Z,96.45
2022-10-13T03:35:37.933Z,96.24
2022-10-13T03:36:11.227Z,96.11
2022-10-13T03:36:42.830Z,95.94
2022-10-13T03:37:14.347Z,95.80
2022-10-13T03:37:45.849Z,95.99
2022-10-13T03:38:17.349Z,96.19
2022-10-13T03:38:48.959Z,96.06
2022-10-13T03:39:20.459Z,96.12
2022-10-13T03:39:51.971Z,96.31
2022-10-13T03:40:23.760Z,96.30
2022-10-13T03:40:55.396Z,96.50
2022-10-13T03:41:26.935Z,96.46
2022-10-13T03:41:58.441Z,96.71
2022-10-13T03:42:29.976Z,96.63
2022-10-13T03:43:01.479Z,96.66
2022-10-13T03:43:33.369Z,96.66
2022-10-13T03:44:05.118Z,96.65
2022-10-13T03:44:36.614Z,96.49
2022-10-13T03:45:09.978Z,96.46
2022-10-13T03:45:41.500Z,96.29
2022-10-13T03:46:16.561Z,96.16
2022-10-13T03:46:48.053Z,96.13
2022-10-13T03:47:19.647Z,96.13
2022-10-13T03:47:51.152Z,96.08
2022-10-13T03:48:22.984Z,96.01
2022-10-13T03:48:54.879Z,95.86
2022-10-13T03:49:26.550Z,95.68
2022-10-13T03:49:58.105Z,95.78
2022-10-13T03:50:29.613Z,95.76
2022-10-13T03:51:08.409Z,95.70
2022-10-13T03:51:40.218Z,95.75
2022-10-13T03:52:11.854Z,96.25
2022-10-13T03:52:43.360Z,96.28
2022-10-13T03:53:15.494Z,96.21
2022-10-13T03:53:48.447Z,95.94
2022-10-13T03:54:20.118Z,95.98
2022-10-13T03:54:51.766Z,96.00
2022-10-13T03:55:23.270Z,96.22
2022-10-13T03:55:56.831Z,96.17
2022-10-13T03:56:28.695Z,96.07
2022-10-13T03:57:00.199Z,96.51
2022-10-13T03:57:31.717Z,96.77
2022-10-13T03:58:03.213Z,96.50
2022-10-13T03:58:35.159Z,96.25
2022-10-13T03:59:07.297Z,96.22
2022-10-13T03:59:42.102Z,96.75
2022-10-13T04:00:14.466Z,96.79
2022-10-13T04:00:46.324Z,96.85
2022-10-13T04:01:17.892Z,96.95
2022-10-13T04:01:49.560Z,96.89
2022-10-13T04:02:21.429Z,96.54
2022-10-13T04:02:53.070Z,96.56
2022-10-13T04:03:24.769Z,96.37
2022-10-13T04:03:57.829Z,96.20
2022-10-13T04:04:29.329Z,96.32
2022-10-13T04:05:00.822Z,96.23
2022-10-13T04:05:34.532Z,96.24
2022-10-13T04:06:06.854Z,96.05
2022-10-13T04:06:38.959Z,96.01
2022-10-13T04:07:10.479Z,96.27
2022-10-13T04:07:41.970Z,96.33
2022-10-13T04:08:14.358Z,96.24
2022-10-13T04:08:46.269Z,96.15
2022-10-13T04:09:17.832Z,96.06
2022-10-13T04:09:49.799Z,96.07
2022-10-13T04:10:21.295Z,96.22
2022-10-13T04:11:04.209Z,96.21
2022-10-13T04:11:35.754Z,95.81
2022-10-13T04:12:07.382Z,95.68
2022-10-13T04:12:38.947Z,95.65
2022-10-13T04:13:10.522Z,95.57
2022-10-13T04:13:42.617Z,95.41
2022-10-13T04:14:14.102Z,95.11
2022-10-13T04:14:45.600Z,94.99
2022-10-13T04:15:17.219Z,95.19
2022-10-13T04:15:48.725Z,95.33
2022-10-13T04:16:23.910Z,95.01
2022-10-13T04:16:55.449Z,95.02
2022-10-13T04:17:26.995Z,95.03
2022-10-13T04:17:58.492Z,95.01
2022-10-13T04:18:30.855Z,95.28
2022-10-13T04:19:04.754Z,95.33
2022-10-13T04:19:36.446Z,95.06
2022-10-13T04:20:08.711Z,94.94
2022-10-13T04:20:40.533Z,95.10
2022-10-13T04:21:15.033Z,95.02
2022-10-13T04:21:46.522Z,94.91
2022-10-13T04:22:18.437Z,95.01
2022-10-13T04:22:50.350Z,95.13
2022-10-13T04:23:21.893Z,94.89
2022-10-13T04:23:57.841Z,94.95
2022-10-13T04:24:29.374Z,95.14
2022-10-13T04:25:00.918Z,95.42
2022-10-13T04:25:35.463Z,95.41
2022-10-13T04:26:07.372Z,95.35
2022-10-13T04:26:39.697Z,95.20
2022-10-13T04:27:11.274Z,95.09
2022-10-13T04:27:42.895Z,95.31
2022-10-13T04:28:14.492Z,95.67
2022-10-13T04:28:47.794Z,95.49
2022-10-13T04:29:19.506Z,95.39
2022-10-13T04:29:51.018Z,95.46
2022-10-13T04:30:22.527Z,95.44
2022-10-13T04:30:54.072Z,95.36
2022-10-13T04:31:28.587Z,95.33
2022-10-13T04:32:00.392Z,95.47
2022-10-13T04:32:32.364Z,95.48
2022-10-13T04:33:03.979Z,95.47
2022-10-13T04:33:35.473Z,95.48
2022-10-13T04:34:07.790Z,95.57
2022-10-13T04:34:40.820Z,95.53
2022-10-13T04:35:12.357Z,95.51
2022-10-13T04:35:43.857Z,95.46
2022-10-13T04:36:16.038Z,95.39
2022-10-13T04:36:51.798Z,95.50
2022-10-13T04:37:24.155Z,95.40
2022-10-13T04:37:57.991Z,95.49
2022-10-13T04:38:29.510Z,95.13
2022-10-13T04:39:01.025Z,95.32
2022-10-13T04:39:32.644Z,95.21
2022-10-13T04:40:04.578Z,95.05
2022-10-13T04:40:36.229Z,95.19
2022-10-13T04:41:09.317Z,95.23
2022-10-13T04:41:40.824Z,94.95
2022-10-13T04:42:12.452Z,95.33
2022-10-13T04:42:43.977Z,95.28
2022-10-13T04:43:15.871Z,95.16
2022-10-13T04:43:49.531Z,95.74
2022-10-13T04:44:21.213Z,96.01
2022-10-13T04:44:52.751Z,95.98
2022-10-13T04:45:24.249Z,95.95
2022-10-13T04:46:09.264Z,96.49
2022-10-13T04:46:40.778Z,96.70
2022-10-13T04:47:12.283Z,96.45
2022-10-13T04:47:44.070Z,96.49
2022-10-13T04:48:15.583Z,96.46
2022-10-13T04:48:47.447Z,96.47
2022-10-13T04:49:19.019Z,96.53
2022-10-13T04:49:50.548Z,96.68
2022-10-13T04:50:22.125Z,96.52
2022-10-13T04:51:07.763Z,96.50
2022-10-13T04:51:39.449Z,96.28
2022-10-13T04:52:11.021Z,95.96
2022-10-13T04:52:42.895Z,95.53
2022-10-13T04:53:19.060Z,95.06
2022-10-13T04:53:56.227Z,94.84
2022-10-13T04:54:27.795Z,95.04
2022-10-13T04:54:59.391Z,95.21
2022-10-13T04:55:30.924Z,95.28
2022-10-13T04:56:08.510Z,95.04
2022-10-13T04:56:40.061Z,94.84
2022-10-13T04:57:11.601Z,95.05
2022-10-13T04:57:43.100Z,95.21
2022-10-13T04:58:14.603Z,95.37
2022-10-13T04:58:46.650Z,95.47
2022-10-13T04:59:18.147Z,95.33
2022-10-13T04:59:49.691Z,95.21
2022-10-13T05:00:21.499Z,95.25
2022-10-13T05:00:53.202Z,95.05
2022-10-13T05:01:25.392Z,95.17
2022-10-13T05:01:56.889Z,95.32
2022-10-13T05:02:28.431Z,95.41
2022-10-13T05:02:59.971Z,95.41
2022-10-13T05:03:31.657Z,95.81
2022-10-13T05:04:04.670Z,95.70
2022-10-13T05:04:36.495Z,95.84
2022-10-13T05:05:08.486Z,95.97
2022-10-13T05:05:40.140Z,96.07
2022-10-13T05:06:21.040Z,96.05
2022-10-13T05:07:16.882Z,95.63
2022-10-13T05:07:44.179Z,95.89
2022-10-13T05:08:15.734Z,95.69
2022-10-13T05:08:47.273Z,95.64
2022-10-13T05:09:19.051Z,95.85
2022-10-13T05:09:51.897Z,95.57
2022-10-13T05:10:23.427Z,95.54
2022-10-13T05:10:57.281Z,95.39
2022-10-13T05:11:29.866Z,95.46
2022-10-13T05:12:01.570Z,95.54
2022-10-13T05:12:33.158Z,95.24
2022-10-13T05:13:04.697Z,95.22
2022-10-13T05:13:37.038Z,95.09
2022-10-13T05:14:08.538Z,95.21
2022-10-13T05:14:40.042Z,95.07
2022-10-13T05:15:11.570Z,95.21
2022-10-13T05:15:43.071Z,95.32
2022-10-13T05:16:17.382Z,95.18
2022-10-13T05:16:49.244Z,95.15
2022-10-13T05:17:20.748Z,95.11
2022-10-13T05:17:52.283Z,95.31
2022-10-13T05:18:23.871Z,95.16
2022-10-13T05:18:55.476Z,95.33
2022-10-13T05:19:27.008Z,95.38
2022-10-13T05:19:58.531Z,94.92
2022-10-13T05:20:30.032Z,94.85
2022-10-13T05:21:13.649Z,95.80
2022-10-13T05:21:45.185Z,95.86
2022-10-13T05:22:17.069Z,95.53
2022-10-13T05:22:48.733Z,95.57
2022-10-13T05:23:20.230Z,95.41
2022-10-13T05:23:56.010Z,95.14
2022-10-13T05:24:36.727Z,95.26
2022-10-13T05:25:08.439Z,94.76
2022-10-13T05:25:40.014Z,94.60
2022-10-13T05:26:14.539Z,94.84
2022-10-13T05:26:46.049Z,94.45
2022-10-13T05:27:18.204Z,94.59
2022-10-13T05:27:49.771Z,94.97
2022-10-13T05:28:21.623Z,94.71
2022-10-13T05:28:53.291Z,94.81
2022-10-13T05:29:24.881Z,94.99
2022-10-13T05:29:56.438Z,95.28
2022-10-13T05:30:27.929Z,94.87
2022-10-13T05:31:09.675Z,95.49
2022-10-13T05:31:41.210Z,95.73
2022-10-13T05:32:12.762Z,95.80
2022-10-13T05:32:44.264Z,95.48
2022-10-13T05:33:15.753Z,94.99
2022-10-13T05:33:48.728Z,94.84
2022-10-13T05:34:20.282Z,95.04
2022-10-13T05:34:51.809Z,94.96
2022-10-13T05:35:23.367Z,94.72
2022-10-13T05:35:55.074Z,94.86
2022-10-13T05:36:32.086Z,94.89
2022-10-13T05:37:03.603Z,94.78
2022-10-13T05:37:35.106Z,94.98
2022-10-13T05:38:06.601Z,94.86
2022-10-13T05:38:38.614Z,94.95
2022-10-13T05:39:10.293Z,95.21
2022-10-13T05:39:41.783Z,95.10
2022-10-13T05:40:13.808Z,95.10
2022-10-13T05:40:45.311Z,94.65
2022-10-13T05:41:16.827Z,95.09
2022-10-13T05:41:48.334Z,95.56
2022-10-13T05:42:20.080Z,95.56
2022-10-13T05:42:52.635Z,95.09
2022-10-13T05:43:24.227Z,95.19
2022-10-13T05:44:04.442Z,95.15
2022-10-13T05:44:37.456Z,95.11
2022-10-13T05:45:11.059Z,95.33
2022-10-13T05:45:42.591Z,95.03
2022-10-13T05:46:14.577Z,94.78
2022-10-13T05:46:46.144Z,94.54
2022-10-13T05:47:17.669Z,94.43
2022-10-13T05:47:49.227Z,94.56
2022-10-13T05:48:20.724Z,94.42
2022-10-13T05:48:53.150Z,94.53
2022-10-13T05:49:24.709Z,95.31
2022-10-13T05:49:56.228Z,95.23
2022-10-13T05:50:28.427Z,95.08
2022-10-13T05:51:01.926Z,95.26
2022-10-13T05:51:42.949Z,95.13
2022-10-13T05:52:14.481Z,94.88
2022-10-13T05:52:46.414Z,94.93
2022-10-13T05:53:18.020Z,94.89
2022-10-13T05:54:20.087Z,94.81
2022-10-13T05:54:55.590Z,95.00
2022-10-13T05:55:27.229Z,95.01
2022-10-13T05:56:06.233Z,95.00
2022-10-13T05:56:46.268Z,94.75
2022-10-13T05:57:24.072Z,94.69
2022-10-13T05:57:55.627Z,94.84
2022-10-13T05:58:27.175Z,94.65
2022-10-13T05:59:02.343Z,94.48
2022-10-13T05:59:37.475Z,94.35
2022-10-13T06:00:17.117Z,94.40
2022-10-13T06:00:49.125Z,94.62
2022-10-13T06:01:24.750Z,94.57
2022-10-13T06:01:56.523Z,94.38
2022-10-13T06:02:34.843Z,94.39
2022-10-13T06:03:22.643Z,94.34
2022-10-13T06:03:58.686Z,94.52
2022-10-13T06:04:44.676Z,94.37
2022-10-13T06:05:18.275Z,94.20
2022-10-13T06:05:49.843Z,93.84
2022-10-13T06:06:25.818Z,93.85
2022-10-13T06:07:00.625Z,93.69
2022-10-13T06:07:32.161Z,93.84
2022-10-13T06:08:03.850Z,94.22
2022-10-13T06:08:36.034Z,94.04
2022-10-13T06:09:07.620Z,94.14
2022-10-13T06:09:40.195Z,93.98
2022-10-13T06:10:12.234Z,93.88
2022-10-13T06:10:43.971Z,94.02
2022-10-13T06:11:15.553Z,93.83
2022-10-13T06:11:47.204Z,94.00
2022-10-13T06:12:19.008Z,93.93
2022-10-13T06:12:50.828Z,93.85
2022-10-13T06:13:22.353Z,93.72
2022-10-13T06:13:53.861Z,93.30
2022-10-13T06:14:25.353Z,93.40
2022-10-13T06:14:56.886Z,93.13
2022-10-13T06:15:28.562Z,92.92
2022-10-13T06:16:00.359Z,92.81
2022-10-13T06:16:31.992Z,92.74
2022-10-13T06:17:04.235Z,92.74
2022-10-13T06:17:37.954Z,92.87
2022-10-13T06:18:10.430Z,92.51
2022-10-13T06:18:41.978Z,92.04
2022-10-13T06:19:13.555Z,92.08
2022-10-13T06:19:45.429Z,91.94
2022-10-13T06:20:17.063Z,91.58
2022-10-13T06:20:48.644Z,91.50
2022-10-13T06:21:20.161Z,91.67
2022-10-13T06:21:52.041Z,91.77
2022-10-13T06:22:23.617Z,91.57
2022-10-13T06:22:56.203Z,91.76
2022-10-13T06:23:27.703Z,91.83
2022-10-13T06:23:59.228Z,91.95
2022-10-13T06:24:30.885Z,92.13
2022-10-13T06:25:03.815Z,92.32
2022-10-13T06:25:36.014Z,92.31
2022-10-13T06:26:09.117Z,92.64
2022-10-13T06:26:41.255Z,92.76
2022-10-13T06:27:12.773Z,93.09
2022-10-13T06:27:44.319Z,93.01
2022-10-13T06:28:16.358Z,93.32
2022-10-13T06:28:51.084Z,93.08
2022-10-13T06:29:24.085Z,92.87
2022-10-13T06:29:55.795Z,92.88
2022-10-13T06:30:28.038Z,92.92
2022-10-13T06:30:59.559Z,92.88
2022-10-13T06:31:31.066Z,92.70
2022-10-13T06:32:02.732Z,92.54
2022-10-13T06:32:34.341Z,92.28
2022-10-13T06:33:05.879Z,91.91
2022-10-13T06:33:37.470Z,91.92
2022-10-13T06:34:09.012Z,91.88
2022-10-13T06:34:40.542Z,92.21
2022-10-13T06:35:12.078Z,92.22
2022-10-13T06:35:43.582Z,91.85
2022-10-13T06:36:15.133Z,91.81
2022-10-13T06:36:47.228Z,91.76
2022-10-13T06:37:20.340Z,91.94
2022-10-13T06:37:54.965Z,91.45
2022-10-13T06:38:26.470Z,91.63
2022-10-13T06:38:57.972Z,92.09
2022-10-13T06:39:29.478Z,91.34
2022-10-13T06:40:00.991Z,90.79
2022-10-13T06:40:32.537Z,90.69
2022-10-13T06:41:05.364Z,90.92
2022-10-13T06:41:36.899Z,90.91
2022-10-13T06:42:08.610Z,90.83
2022-10-13T06:42:40.366Z,91.40
2022-10-13T06:43:11.974Z,91.34
2022-10-13T06:43:44.003Z,91.25
2022-10-13T06:44:15.514Z,91.74
2022-10-13T06:44:47.076Z,91.85
2022-10-13T06:45:19.562Z,90.84
2022-10-13T06:45:51.082Z,90.98
2022-10-13T06:46:22.659Z,90.46
2022-10-13T06:46:54.164Z,90.18
2022-10-13T06:47:25.922Z,90.30
2022-10-13T06:47:57.447Z,90.17
2022-10-13T06:48:29.273Z,89.70
2022-10-13T06:49:00.844Z,89.78
2022-10-13T06:49:32.472Z,89.80
2022-10-13T06:50:04.207Z,89.99
2022-10-13T06:50:39.430Z,90.01
2022-10-13T06:51:13.615Z,89.47
2022-10-13T06:51:45.145Z,89.14
2022-10-13T06:52:16.816Z,88.83
2022-10-13T06:52:48.494Z,88.41
2022-10-13T06:53:20.414Z,88.39
2022-10-13T06:53:51.946Z,88.57
2022-10-13T06:54:23.442Z,88.48
2022-10-13T06:54:54.968Z,87.83
2022-10-13T06:55:26.507Z,86.95
2022-10-13T06:55:59.064Z,86.43
2022-10-13T06:56:30.860Z,86.14
2022-10-13T06:57:05.237Z,86.38
2022-10-13T06:57:37.061Z,86.39
2022-10-13T06:58:08.589Z,86.34
2022-10-13T06:58:40.757Z,85.84
2022-10-13T06:59:12.325Z,85.89
2022-10-13T06:59:44.482Z,85.55
2022-10-13T07:00:16.292Z,85.03
2022-10-13T07:00:47.863Z,83.70
2022-10-13T07:01:20.043Z,81.90
2022-10-13T07:01:52.147Z,80.82
2022-10-13T07:02:23.665Z,80.05
2022-10-13T07:02:55.223Z,78.93
2022-10-13T07:03:27.106Z,79.13
2022-10-13T07:03:58.953Z,79.55
2022-10-13T07:04:30.479Z,79.52
2022-10-13T07:05:02.922Z,79.42
2022-10-13T07:05:34.436Z,80.12
2022-10-13T07:06:07.025Z,79.13
2022-10-13T07:06:38.956Z,78.78
2022-10-13T07:07:10.567Z,77.68
2022-10-13T07:07:42.080Z,76.54
2022-10-13T07:08:14.084Z,75.66
2022-10-13T07:08:45.799Z,74.84
2022-10-13T07:09:17.703Z,73.60
2022-10-13T07:09:49.496Z,71.48
2022-10-13T07:10:21.268Z,71.63
2022-10-13T07:10:52.789Z,68.94
2022-10-13T07:11:24.334Z,66.47
2022-10-13T07:11:55.914Z,65.67
2022-10-13T07:12:27.482Z,65.76
2022-10-13T07:12:59.063Z,66.06
2022-10-13T07:13:33.590Z,66.70
2022-10-13T07:14:07.973Z,69.30
2022-10-13T07:14:41.696Z,69.82
2022-10-13T07:15:15.441Z,70.08
2022-10-13T07:15:47.105Z,70.19
2022-10-13T07:16:18.643Z,70.10